createdAt,value
2023-05-01T00:02:48.226Z,10.16
2023-05-01T00:05:50.554Z,10.29
2023-05-01T00:08:52.774Z,10.22
2023-05-01T00:11:55.037Z,10.05
2023-05-01T00:14:57.189Z,9.91
2023-05-01T00:17:59.669Z,9.80
2023-05-01T00:21:02.056Z,9.77
2023-05-01T00:24:04.643Z,9.70
2023-05-01T00:27:07.983Z,9.60
2023-05-01T00:30:10.539Z,9.50
2023-05-01T00:33:13.202Z,9.47
2023-05-01T00:36:15.431Z,9.49
2023-05-01T00:39:17.644Z,9.45
2023-05-01T00:42:19.925Z,9.64
2023-05-01T00:45:22.134Z,9.69
2023-05-01T00:48:24.358Z,9.50
2023-05-01T00:51:29.380Z,9.36
2023-05-01T00:54:31.602Z,9.30
2023-05-01T00:57:33.875Z,9.43
2023-05-01T01:00:36.470Z,9.30
2023-05-01T01:03:38.817Z,9.15
2023-05-01T01:06:54.509Z,9.08
2023-05-01T01:10:10.271Z,8.86
2023-05-01T01:13:15.816Z,8.77
2023-05-01T01:16:48.472Z,8.62
2023-05-01T01:20:28.688Z,8.34
2023-05-01T01:24:13.471Z,8.08
2023-05-01T01:27:18.187Z,7.94
2023-05-01T01:30:42.336Z,7.95
2023-05-01T01:33:54.569Z,8.10
2023-05-01T01:37:08.781Z,8.17
2023-05-01T01:40:14.055Z,8.37
2023-05-01T01:43:18.470Z,8.35
2023-05-01T01:46:21.732Z,8.35
2023-05-01T01:49:26.229Z,8.20
2023-05-01T01:52:29.389Z,8.20
2023-05-01T01:55:33.368Z,8.10
2023-05-01T01:58:36.985Z,8.03
2023-05-01T02:01:41.924Z,7.79
2023-05-01T02:04:44.781Z,7.61
2023-05-01T02:07:48.804Z,7.81
2023-05-01T02:10:52.077Z,7.62
2023-05-01T02:13:54.933Z,7.60
2023-05-01T02:16:58.802Z,7.48
2023-05-01T02:20:02.270Z,7.47
2023-05-01T02:23:05.861Z,7.59
2023-05-01T02:26:12.307Z,7.50
2023-05-01T02:29:15.014Z,7.56
2023-05-01T02:32:17.308Z,7.24
2023-05-01T02:35:19.572Z,7.26
2023-05-01T02:38:21.820Z,7.18
2023-05-01T02:41:26.186Z,7.22
2023-05-01T02:44:30.622Z,6.97
2023-05-01T02:47:35.769Z,6.91
2023-05-01T02:50:40.801Z,6.94
2023-05-01T02:53:43.114Z,6.92
2023-05-01T02:56:45.308Z,7.00
2023-05-01T02:59:47.598Z,6.97
2023-05-01T03:02:49.770Z,7.06
2023-05-01T03:05:52.183Z,6.92
2023-05-01T03:08:54.496Z,6.76
2023-05-01T03:11:56.786Z,6.63
2023-05-01T03:14:59.099Z,6.60
2023-05-01T03:18:01.443Z,6.68
2023-05-01T03:21:03.850Z,6.71
2023-05-01T03:24:06.368Z,6.67
2023-05-01T03:27:08.789Z,6.84
2023-05-01T03:30:11.619Z,6.59
2023-05-01T03:33:13.845Z,6.66
2023-05-01T03:36:16.557Z,6.53
2023-05-01T03:39:19.262Z,6.82
2023-05-01T03:42:21.444Z,6.70
2023-05-01T03:45:23.793Z,6.64
2023-05-01T03:48:26.053Z,6.67
2023-05-01T03:51:28.447Z,6.65
2023-05-01T03:54:30.673Z,6.60
2023-05-01T03:57:33.080Z,6.79
2023-05-01T04:00:35.255Z,6.94
2023-05-01T04:03:37.807Z,7.04
2023-05-01T04:06:40.455Z,7.82
2023-05-01T04:09:43.618Z,8.86
2023-05-01T04:12:45.816Z,9.41
2023-05-01T04:15:48.051Z,9.89
2023-05-01T04:18:50.974Z,9.93
2023-05-01T04:21:54.280Z,10.37
2023-05-01T04:24:56.532Z,10.69
2023-05-01T04:27:58.873Z,10.92
2023-05-01T04:31:01.265Z,12.11
2023-05-01T04:34:03.794Z,13.18
2023-05-01T04:37:08.867Z,12.76
2023-05-01T04:40:11.993Z,13.80
2023-05-01T04:43:14.245Z,13.82
2023-05-01T04:46:16.564Z,13.33
2023-05-01T04:49:18.810Z,13.23
2023-05-01T04:52:21.012Z,13.11
2023-05-01T04:55:23.231Z,12.82
2023-05-01T04:58:25.391Z,13.20
2023-05-01T05:01:27.660Z,12.78
2023-05-01T05:04:29.880Z,12.51
2023-05-01T05:07:32.154Z,12.43
2023-05-01T05:10:34.372Z,12.53
2023-05-01T05:13:36.625Z,12.30
2023-05-01T05:16:38.989Z,12.67
2023-05-01T05:19:41.233Z,12.60
2023-05-01T05:22:43.481Z,12.30
2023-05-01T05:25:45.786Z,12.13
2023-05-01T05:28:48.114Z,12.37
2023-05-01T05:31:50.458Z,12.59
2023-05-01T05:34:52.760Z,12.97
2023-05-01T05:37:54.978Z,12.88
2023-05-01T05:40:59.428Z,12.80
2023-05-01T05:44:01.760Z,13.25
2023-05-01T05:47:03.973Z,13.32
2023-05-01T05:50:07.435Z,13.12
2023-05-01T05:53:10.028Z,13.10
2023-05-01T05:56:12.263Z,12.84
2023-05-01T05:59:16.640Z,12.91
2023-05-01T06:02:20.357Z,13.29
2023-05-01T06:05:22.737Z,13.03
2023-05-01T06:08:24.931Z,13.52
2023-05-01T06:11:27.857Z,13.36
2023-05-01T06:14:30.242Z,13.41
2023-05-01T06:17:32.475Z,12.95
2023-05-01T06:20:34.841Z,13.53
2023-05-01T06:23:37.165Z,13.77
2023-05-01T06:26:39.393Z,13.82
2023-05-01T06:29:41.720Z,13.83
2023-05-01T06:32:44.347Z,13.77
2023-05-01T06:35:46.941Z,13.64
2023-05-01T06:38:49.409Z,13.79
2023-05-01T06:41:51.620Z,14.00
2023-05-01T06:44:53.814Z,14.10
2023-05-01T06:47:56.423Z,14.30
2023-05-01T06:50:58.736Z,13.96
2023-05-01T06:54:00.980Z,13.88
2023-05-01T06:57:03.182Z,14.29
2023-05-01T07:00:06.362Z,14.14
2023-05-01T07:03:08.669Z,14.46
2023-05-01T07:06:10.974Z,14.47
2023-05-01T07:09:13.933Z,14.68
2023-05-01T07:12:16.194Z,14.37
2023-05-01T07:15:18.434Z,14.64
2023-05-01T07:18:20.668Z,14.62
2023-05-01T07:21:22.893Z,14.79
2023-05-01T07:24:25.276Z,15.13
2023-05-01T07:27:27.530Z,14.91
2023-05-01T07:30:30.483Z,15.19
2023-05-01T07:33:32.708Z,15.39
2023-05-01T07:36:34.963Z,15.66
2023-05-01T07:39:37.119Z,15.57
2023-05-01T07:42:39.320Z,15.23
2023-05-01T07:45:42.761Z,15.18
2023-05-01T07:48:45.220Z,15.28
2023-05-01T07:51:47.529Z,15.16
2023-05-01T07:54:52.082Z,15.13
2023-05-01T07:57:54.275Z,15.38
2023-05-01T08:00:56.581Z,15.05
2023-05-01T08:03:58.864Z,15.09
2023-05-01T08:07:01.148Z,15.77
2023-05-01T08:10:03.758Z,15.75
2023-05-01T08:13:06.181Z,16.02
2023-05-01T08:16:08.987Z,16.43
2023-05-01T08:19:11.225Z,16.46
2023-05-01T08:22:14.189Z,16.88
2023-05-01T08:25:16.577Z,16.80
2023-05-01T08:28:21.113Z,16.29
2023-05-01T08:31:25.160Z,16.75
2023-05-01T08:34:27.489Z,17.41
2023-05-01T08:37:30.004Z,16.92
2023-05-01T08:40:34.607Z,16.98
2023-05-01T08:43:37.001Z,17.23
2023-05-01T08:46:48.128Z,16.73
2023-05-01T08:49:51.232Z,16.79
2023-05-01T08:52:54.202Z,17.00
2023-05-01T08:55:56.757Z,17.47
2023-05-01T08:59:01.255Z,17.41
2023-05-01T09:02:06.124Z,17.41
2023-05-01T09:05:09.021Z,17.26
2023-05-01T09:08:11.302Z,17.13
2023-05-01T09:11:13.543Z,17.71
2023-05-01T09:14:15.876Z,17.54
2023-05-01T09:17:18.319Z,18.03
2023-05-01T09:20:21.027Z,17.61
2023-05-01T09:23:23.454Z,17.65
2023-05-01T09:26:26.896Z,17.96
2023-05-01T09:29:46.816Z,18.21
2023-05-01T09:33:07.718Z,18.21
2023-05-01T09:36:17.449Z,17.98
2023-05-01T09:39:23.100Z,17.83
2023-05-01T09:42:25.418Z,17.39
2023-05-01T09:45:27.968Z,17.72
2023-05-01T09:48:32.684Z,17.94
2023-05-01T09:51:37.159Z,17.78
2023-05-01T09:54:39.396Z,17.99
2023-05-01T09:57:43.001Z,18.41
2023-05-01T10:00:49.689Z,18.44
2023-05-01T10:03:56.327Z,18.62
2023-05-01T10:07:04.529Z,18.84
2023-05-01T10:10:20.276Z,19.23
2023-05-01T10:13:22.559Z,19.35
2023-05-01T10:16:30.012Z,19.07
2023-05-01T10:19:32.390Z,18.41
2023-05-01T10:22:35.003Z,18.70
2023-05-01T10:25:37.407Z,19.10
2023-05-01T10:28:40.810Z,18.89
2023-05-01T10:31:43.070Z,18.75
2023-05-01T10:34:49.102Z,19.19
2023-05-01T10:38:06.457Z,19.55
2023-05-01T10:41:09.916Z,19.29
2023-05-01T10:44:23.592Z,19.33
2023-05-01T10:47:27.893Z,19.67
2023-05-01T10:50:30.174Z,19.59
2023-05-01T10:53:32.370Z,19.74
2023-05-01T10:56:34.500Z,19.67
2023-05-01T10:59:58.530Z,19.05
2023-05-01T11:03:22.536Z,19.52
2023-05-01T11:06:25.296Z,19.78
2023-05-01T11:09:44.198Z,19.93
2023-05-01T11:12:46.466Z,20.02
2023-05-01T11:15:49.061Z,19.95
2023-05-01T11:18:51.262Z,20.13
2023-05-01T11:21:54.324Z,19.78
2023-05-01T11:24:56.989Z,19.79
2023-05-01T11:28:01.577Z,19.60
2023-05-01T11:31:04.035Z,19.81
2023-05-01T11:34:09.236Z,20.04
2023-05-01T11:37:11.588Z,19.66
2023-05-01T11:40:31.503Z,19.63
2023-05-01T11:43:33.748Z,19.62
2023-05-01T11:46:36.199Z,19.85
2023-05-01T11:49:39.012Z,19.23
2023-05-01T11:52:50.288Z,19.59
2023-05-01T11:55:52.604Z,19.74
2023-05-01T11:58:59.039Z,19.51
2023-05-01T12:02:02.614Z,19.82
2023-05-01T12:05:15.928Z,19.89
2023-05-01T12:08:20.951Z,20.25
2023-05-01T12:11:24.127Z,19.84
2023-05-01T12:14:26.364Z,19.79
2023-05-01T12:17:30.270Z,19.68
2023-05-01T12:20:39.624Z,20.00
2023-05-01T12:23:41.788Z,20.14
2023-05-01T12:26:45.267Z,20.30
2023-05-01T12:29:48.255Z,20.58
2023-05-01T12:32:50.713Z,20.76
2023-05-01T12:35:52.938Z,20.81
2023-05-01T12:39:01.818Z,20.53
2023-05-01T12:42:04.051Z,20.79
2023-05-01T12:45:06.844Z,20.87
2023-05-01T12:48:14.806Z,20.94
2023-05-01T12:51:20.759Z,21.03
2023-05-01T12:54:23.762Z,21.35
2023-05-01T12:57:25.931Z,21.27
2023-05-01T13:00:28.121Z,21.40
2023-05-01T13:03:30.992Z,21.40
2023-05-01T13:06:33.993Z,21.37
2023-05-01T13:09:36.330Z,21.05
2023-05-01T13:12:44.627Z,20.95
2023-05-01T13:15:46.937Z,20.72
2023-05-01T13:18:51.217Z,20.63
2023-05-01T13:21:53.502Z,20.77
2023-05-01T13:24:56.154Z,20.85
2023-05-01T13:27:58.771Z,21.10
2023-05-01T13:31:00.952Z,21.10
2023-05-01T13:34:04.304Z,21.00
2023-05-01T13:37:10.829Z,20.65
2023-05-01T13:40:13.271Z,20.83
2023-05-01T13:43:17.083Z,20.82
2023-05-01T13:46:22.018Z,20.73
2023-05-01T13:49:25.653Z,20.84
2023-05-01T13:52:27.875Z,20.95
2023-05-01T13:55:30.046Z,21.03
2023-05-01T13:58:33.488Z,20.91
2023-05-01T14:01:46.663Z,20.93
2023-05-01T14:04:49.484Z,20.76
2023-05-01T14:07:58.352Z,20.81
2023-05-01T14:11:04.896Z,20.97
2023-05-01T14:14:07.635Z,20.81
2023-05-01T14:17:09.986Z,20.55
2023-05-01T14:20:12.485Z,20.54
2023-05-01T14:23:17.877Z,20.57
2023-05-01T14:26:21.763Z,20.55
2023-05-01T14:29:26.850Z,20.62
2023-05-01T14:32:29.981Z,20.80
2023-05-01T14:35:32.278Z,20.78
2023-05-01T14:38:39.233Z,20.74
2023-05-01T14:41:42.614Z,20.73
2023-05-01T14:44:44.799Z,20.93
2023-05-01T14:47:48.330Z,20.71
2023-05-01T14:50:51.136Z,20.91
2023-05-01T14:53:53.525Z,20.95
2023-05-01T14:56:55.669Z,20.83
2023-05-01T14:59:58.420Z,20.49
2023-05-01T15:03:01.358Z,20.44
2023-05-01T15:06:04.196Z,20.58
2023-05-01T15:09:06.569Z,20.41
2023-05-01T15:12:09.823Z,20.32
2023-05-01T15:15:12.526Z,20.37
2023-05-01T15:18:14.822Z,20.37
2023-05-01T15:21:17.411Z,20.35
2023-05-01T15:24:19.736Z,20.19
2023-05-01T15:27:21.949Z,20.28
2023-05-01T15:30:24.146Z,19.99
2023-05-01T15:33:26.444Z,19.72
2023-05-01T15:36:28.805Z,19.80
2023-05-01T15:39:31.115Z,19.89
2023-05-01T15:42:33.300Z,20.07
2023-05-01T15:45:35.760Z,19.88
2023-05-01T15:48:38.669Z,19.75
2023-05-01T15:51:41.383Z,19.71
2023-05-01T15:54:46.336Z,19.64
2023-05-01T15:57:48.895Z,19.64
2023-05-01T16:00:51.833Z,19.62
2023-05-01T16:03:54.288Z,19.47
2023-05-01T16:06:56.630Z,19.38
2023-05-01T16:09:59.111Z,19.32
2023-05-01T16:13:01.580Z,19.28
2023-05-01T16:16:03.926Z,19.22
2023-05-01T16:19:06.261Z,19.22
2023-05-01T16:22:08.513Z,19.10
2023-05-01T16:25:11.197Z,18.99
2023-05-01T16:28:14.470Z,18.86
2023-05-01T16:31:27.116Z,18.76
2023-05-01T16:34:30.266Z,18.69
2023-05-01T16:37:34.194Z,18.54
2023-05-01T16:40:37.092Z,18.49
2023-05-01T16:43:39.314Z,18.47
2023-05-01T16:46:42.625Z,18.33
2023-05-01T16:49:46.653Z,18.32
2023-05-01T16:52:48.898Z,18.10
2023-05-01T16:55:51.125Z,18.09
2023-05-01T16:58:53.290Z,17.94
2023-05-01T17:01:55.643Z,17.90
2023-05-01T17:04:58.024Z,17.84
2023-05-01T17:08:00.293Z,17.73
2023-05-01T17:11:05.126Z,17.83
2023-05-01T17:14:07.653Z,17.72
2023-05-01T17:17:09.893Z,17.51
2023-05-01T17:20:13.849Z,17.43
2023-05-01T17:23:17.105Z,17.27
2023-05-01T17:26:19.491Z,17.09
2023-05-01T17:29:21.653Z,16.98
2023-05-01T17:32:35.934Z,16.92
2023-05-01T17:35:39.407Z,16.67
2023-05-01T17:38:41.694Z,16.61
2023-05-01T17:41:43.930Z,16.51
2023-05-01T17:44:49.469Z,16.50
2023-05-01T17:47:52.556Z,16.33
2023-05-01T17:50:55.758Z,16.30
2023-05-01T17:53:57.980Z,16.24
2023-05-01T17:57:00.300Z,16.18
2023-05-01T18:00:04.439Z,16.11
2023-05-01T18:03:08.848Z,16.02
2023-05-01T18:06:11.261Z,16.05
2023-05-01T18:09:13.492Z,16.01
2023-05-01T18:12:15.746Z,16.10
2023-05-01T18:15:22.462Z,15.98
2023-05-01T18:18:25.407Z,15.89
2023-05-01T18:21:27.921Z,15.70
2023-05-01T18:24:30.601Z,15.56
2023-05-01T18:27:33.363Z,15.20
2023-05-01T18:30:35.548Z,15.22
2023-05-01T18:33:39.264Z,15.09
2023-05-01T18:36:41.711Z,14.81
2023-05-01T18:39:45.907Z,14.68
2023-05-01T18:42:48.117Z,14.68
2023-05-01T18:45:50.310Z,14.92
2023-05-01T18:48:53.144Z,14.86
2023-05-01T18:51:55.569Z,14.78
2023-05-01T18:54:59.211Z,14.62
2023-05-01T18:58:02.181Z,14.61
2023-05-01T19:01:04.672Z,14.50
2023-05-01T19:04:07.365Z,14.42
2023-05-01T19:07:09.933Z,14.28
2023-05-01T19:10:12.455Z,13.99
2023-05-01T19:13:14.658Z,13.87
2023-05-01T19:16:17.236Z,13.78
2023-05-01T19:19:20.164Z,13.69
2023-05-01T19:22:22.650Z,13.57
2023-05-01T19:25:25.228Z,13.50
2023-05-01T19:28:27.809Z,13.69
2023-05-01T19:31:30.500Z,13.91
2023-05-01T19:34:32.947Z,13.92
2023-05-01T19:37:36.092Z,14.01
2023-05-01T19:40:39.717Z,14.10
2023-05-01T19:43:42.199Z,14.13
2023-05-01T19:46:45.058Z,14.34
2023-05-01T19:49:47.597Z,14.48
2023-05-01T19:52:49.885Z,14.53
2023-05-01T19:55:52.295Z,14.73
2023-05-01T19:58:55.082Z,14.88
2023-05-01T20:01:59.618Z,14.81
2023-05-01T20:05:03.262Z,14.59
2023-05-01T20:08:05.884Z,14.78
2023-05-01T20:11:08.343Z,14.70
2023-05-01T20:14:10.605Z,14.60
2023-05-01T20:17:13.540Z,14.52
2023-05-01T20:20:19.417Z,14.45
2023-05-01T20:23:24.814Z,14.61
2023-05-01T20:26:27.045Z,14.65
2023-05-01T20:29:29.238Z,14.73
2023-05-01T20:32:31.504Z,14.81
2023-05-01T20:35:33.951Z,14.96
2023-05-01T20:38:41.912Z,14.80
2023-05-01T20:41:44.362Z,14.92
2023-05-01T20:44:46.627Z,14.96
2023-05-01T20:47:49.134Z,14.86
2023-05-01T20:50:51.508Z,14.85
2023-05-01T20:53:54.213Z,14.80
2023-05-01T20:56:56.462Z,14.82
2023-05-01T20:59:59.108Z,14.65
2023-05-01T21:03:01.737Z,14.63
2023-05-01T21:06:04.513Z,14.70
2023-05-01T21:09:08.606Z,14.73
2023-05-01T21:12:11.234Z,14.65
2023-05-01T21:15:13.495Z,14.62
2023-05-01T21:18:17.479Z,14.54
2023-05-01T21:21:19.667Z,14.52
2023-05-01T21:24:25.892Z,14.45
2023-05-01T21:27:28.269Z,14.51
2023-05-01T21:30:34.957Z,14.64
2023-05-01T21:33:38.687Z,14.68
2023-05-01T21:36:47.070Z,14.61
2023-05-01T21:39:49.958Z,14.63
2023-05-01T21:42:54.294Z,14.64
2023-05-01T21:45:56.621Z,14.68
2023-05-01T21:48:58.833Z,14.60
2023-05-01T21:52:01.834Z,14.67
2023-05-01T21:55:05.045Z,14.62
2023-05-01T21:58:07.282Z,14.68
2023-05-01T22:01:13.134Z,14.68
2023-05-01T22:04:17.970Z,14.78
2023-05-01T22:07:20.393Z,14.73
2023-05-01T22:10:22.644Z,14.79
2023-05-01T22:13:25.006Z,14.72
2023-05-01T22:16:27.303Z,14.76
2023-05-01T22:19:29.479Z,14.77
2023-05-01T22:22:31.808Z,14.74
2023-05-01T22:25:34.237Z,14.68
2023-05-01T22:28:36.473Z,14.79
2023-05-01T22:31:38.787Z,14.86
2023-05-01T22:34:40.974Z,14.88
2023-05-01T22:37:43.163Z,14.98
2023-05-01T22:40:45.374Z,14.88
2023-05-01T22:43:47.620Z,14.84
2023-05-01T22:46:50.103Z,14.86
2023-05-01T22:49:52.409Z,14.91
2023-05-01T22:52:54.580Z,14.81
2023-05-01T22:55:56.857Z,14.86
2023-05-01T22:58:59.036Z,14.83
2023-05-01T23:02:04.977Z,14.76
2023-05-01T23:05:08.056Z,14.67
2023-05-01T23:08:10.273Z,14.81
2023-05-01T23:11:16.679Z,14.64
2023-05-01T23:14:18.950Z,14.66
2023-05-01T23:17:21.627Z,14.61
2023-05-01T23:20:24.542Z,14.63
2023-05-01T23:23:30.906Z,14.46
2023-05-01T23:26:33.117Z,14.49
2023-05-01T23:29:35.784Z,14.36
2023-05-01T23:32:39.546Z,14.31
2023-05-01T23:35:41.836Z,14.36
2023-05-01T23:38:44.068Z,14.27
2023-05-01T23:41:46.445Z,14.19
2023-05-01T23:44:48.655Z,14.18
2023-05-01T23:47:50.885Z,14.22
2023-05-01T23:50:53.091Z,14.27
2023-05-01T23:53:55.263Z,14.30
2023-05-01T23:56:57.488Z,14.22
